sensor_id;sensor_type;location;lat;lon;timestamp;P1;durP1;ratioP1;P2;durP2;ratioP2
49412;SDS011;35493;50.276;9.372;2023-02-15T00:01:46;20.77;;;9.02;;
49412;SDS011;35493;50.276;9.372;2023-02-15T00:04:14;17.92;;;8.80;;
49412;SDS011;35493;50.276;9.372;2023-02-15T00:06:44;18.77;;;8.30;;
49412;SDS011;35493;50.276;9.372;2023-02-15T00:09:11;19.25;;;8.77;;
49412;SDS011;35493;50.276;9.372;2023-02-15T00:11:38;21.08;;;9.40;;
49412;SDS011;35493;50.276;9.372;2023-02-15T00:14:21;18.20;;;8.40;;
49412;SDS011;35493;50.276;9.372;2023-02-15T00:16:49;20.40;;;9.18;;
49412;SDS011;35493;50.276;9.372;2023-02-15T00:19:19;16.63;;;8.63;;
49412;SDS011;35493;50.276;9.372;2023-02-15T00:21:47;22.00;;;9.20;;
49412;SDS011;35493;50.276;9.372;2023-02-15T00:24:15;17.02;;;8.10;;
49412;SDS011;35493;50.276;9.372;2023-02-15T00:26:44;19.05;;;8.60;;
49412;SDS011;35493;50.276;9.372;2023-02-15T00:29:13;17.90;;;8.85;;
49412;SDS011;35493;50.276;9.372;2023-02-15T00:31:42;18.70;;;9.43;;
49412;SDS011;35493;50.276;9.372;2023-02-15T00:34:11;18.88;;;9.23;;
49412;SDS011;35493;50.276;9.372;2023-02-15T00:36:40;18.63;;;8.27;;
49412;SDS011;35493;50.276;9.372;2023-02-15T00:39:07;17.27;;;8.70;;
49412;SDS011;35493;50.276;9.372;2023-02-15T00:41:34;19.33;;;8.43;;
49412;SDS011;35493;50.276;9.372;2023-02-15T00:44:02;17.25;;;8.35;;
49412;SDS011;35493;50.276;9.372;2023-02-15T00:46:30;15.63;;;8.30;;
49412;SDS011;35493;50.276;9.372;2023-02-15T00:49:00;16.00;;;7.75;;
49412;SDS011;35493;50.276;9.372;2023-02-15T00:51:28;18.63;;;8.57;;
49412;SDS011;35493;50.276;9.372;2023-02-15T00:53:55;15.65;;;7.93;;
49412;SDS011;35493;50.276;9.372;2023-02-15T00:56:22;17.67;;;8.30;;
49412;SDS011;35493;50.276;9.372;2023-02-15T00:58:49;18.95;;;8.02;;
49412;SDS011;35493;50.276;9.372;2023-02-15T01:01:17;18.48;;;8.55;;
49412;SDS011;35493;50.276;9.372;2023-02-15T01:03:45;15.55;;;7.55;;
49412;SDS011;35493;50.276;9.372;2023-02-15T01:06:14;16.30;;;7.63;;
49412;SDS011;35493;50.276;9.372;2023-02-15T01:08:42;18.25;;;8.18;;
49412;SDS011;35493;50.276;9.372;2023-02-15T01:11:10;17.00;;;7.85;;
49412;SDS011;35493;50.276;9.372;2023-02-15T01:13:38;14.25;;;7.57;;
49412;SDS011;35493;50.276;9.372;2023-02-15T01:16:06;16.73;;;7.85;;
49412;SDS011;35493;50.276;9.372;2023-02-15T01:18:33;18.17;;;7.88;;
49412;SDS011;35493;50.276;9.372;2023-02-15T01:21:08;14.35;;;7.00;;
49412;SDS011;35493;50.276;9.372;2023-02-15T01:23:37;15.73;;;7.90;;
49412;SDS011;35493;50.276;9.372;2023-02-15T01:26:04;15.77;;;7.95;;
49412;SDS011;35493;50.276;9.372;2023-02-15T01:28:31;15.38;;;7.07;;
49412;SDS011;35493;50.276;9.372;2023-02-15T01:30:58;14.80;;;6.80;;
49412;SDS011;35493;50.276;9.372;2023-02-15T01:33:25;15.35;;;7.50;;
49412;SDS011;35493;50.276;9.372;2023-02-15T01:35:55;15.23;;;8.35;;
49412;SDS011;35493;50.276;9.372;2023-02-15T01:40:51;13.02;;;6.03;;
49412;SDS011;35493;50.276;9.372;2023-02-15T01:43:18;16.50;;;7.22;;
49412;SDS011;35493;50.276;9.372;2023-02-15T01:45:46;16.58;;;7.70;;
49412;SDS011;35493;50.276;9.372;2023-02-15T01:48:17;14.98;;;7.72;;
49412;SDS011;35493;50.276;9.372;2023-02-15T01:50:48;14.68;;;6.85;;
49412;SDS011;35493;50.276;9.372;2023-02-15T01:53:20;14.13;;;7.25;;
49412;SDS011;35493;50.276;9.372;2023-02-15T01:55:53;13.05;;;6.43;;
49412;SDS011;35493;50.276;9.372;2023-02-15T01:58:24;15.20;;;6.65;;
49412;SDS011;35493;50.276;9.372;2023-02-15T02:00:54;14.32;;;7.05;;
49412;SDS011;35493;50.276;9.372;2023-02-15T02:03:29;16.63;;;7.50;;
49412;SDS011;35493;50.276;9.372;2023-02-15T02:06:02;13.00;;;6.97;;
49412;SDS011;35493;50.276;9.372;2023-02-15T02:08:30;16.13;;;7.07;;
49412;SDS011;35493;50.276;9.372;2023-02-15T02:10:59;14.63;;;7.07;;
49412;SDS011;35493;50.276;9.372;2023-02-15T02:13:26;13.27;;;6.97;;
49412;SDS011;35493;50.276;9.372;2023-02-15T02:15:57;14.50;;;7.07;;
49412;SDS011;35493;50.276;9.372;2023-02-15T02:18:34;12.93;;;6.50;;
49412;SDS011;35493;50.276;9.372;2023-02-15T02:24:23;15.35;;;7.55;;
49412;SDS011;35493;50.276;9.372;2023-02-15T02:27:19;14.57;;;6.78;;
49412;SDS011;35493;50.276;9.372;2023-02-15T02:30:14;12.18;;;6.30;;
49412;SDS011;35493;50.276;9.372;2023-02-15T02:36:08;14.45;;;6.65;;
49412;SDS011;35493;50.276;9.372;2023-02-15T02:38:53;14.70;;;6.90;;
49412;SDS011;35493;50.276;9.372;2023-02-15T02:41:36;13.57;;;6.40;;
49412;SDS011;35493;50.276;9.372;2023-02-15T02:44:08;13.45;;;6.05;;
49412;SDS011;35493;50.276;9.372;2023-02-15T02:46:42;13.55;;;6.28;;
49412;SDS011;35493;50.276;9.372;2023-02-15T02:49:16;14.90;;;6.88;;
49412;SDS011;35493;50.276;9.372;2023-02-15T02:51:43;13.43;;;5.80;;
49412;SDS011;35493;50.276;9.372;2023-02-15T02:54:10;15.05;;;6.68;;
49412;SDS011;35493;50.276;9.372;2023-02-15T02:56:39;13.80;;;6.70;;
49412;SDS011;35493;50.276;9.372;2023-02-15T02:59:12;13.13;;;6.18;;
49412;SDS011;35493;50.276;9.372;2023-02-15T03:01:44;13.25;;;6.85;;
49412;SDS011;35493;50.276;9.372;2023-02-15T03:04:17;12.65;;;6.53;;
49412;SDS011;35493;50.276;9.372;2023-02-15T03:06:47;13.43;;;6.38;;
49412;SDS011;35493;50.276;9.372;2023-02-15T03:09:20;13.82;;;6.07;;
49412;SDS011;35493;50.276;9.372;2023-02-15T03:12:00;13.38;;;6.30;;
49412;SDS011;35493;50.276;9.372;2023-02-15T03:14:29;14.82;;;6.78;;
49412;SDS011;35493;50.276;9.372;2023-02-15T03:16:56;13.40;;;6.03;;
49412;SDS011;35493;50.276;9.372;2023-02-15T03:19:26;15.55;;;6.75;;
49412;SDS011;35493;50.276;9.372;2023-02-15T03:21:57;12.32;;;6.53;;
49412;SDS011;35493;50.276;9.372;2023-02-15T03:24:40;12.38;;;6.40;;
49412;SDS011;35493;50.276;9.372;2023-02-15T03:27:11;13.20;;;6.13;;
49412;SDS011;35493;50.276;9.372;2023-02-15T03:29:43;13.02;;;6.50;;
49412;SDS011;35493;50.276;9.372;2023-02-15T03:32:12;13.57;;;7.00;;
49412;SDS011;35493;50.276;9.372;2023-02-15T03:34:43;14.02;;;6.15;;
49412;SDS011;35493;50.276;9.372;2023-02-15T03:37:11;14.73;;;6.13;;
49412;SDS011;35493;50.276;9.372;2023-02-15T03:39:45;13.80;;;7.22;;
49412;SDS011;35493;50.276;9.372;2023-02-15T03:42:18;13.45;;;6.13;;
49412;SDS011;35493;50.276;9.372;2023-02-15T03:44:51;13.40;;;6.32;;
49412;SDS011;35493;50.276;9.372;2023-02-15T03:47:24;14.45;;;6.72;;
49412;SDS011;35493;50.276;9.372;2023-02-15T03:49:55;15.40;;;6.47;;
49412;SDS011;35493;50.276;9.372;2023-02-15T03:52:26;13.00;;;6.47;;
49412;SDS011;35493;50.276;9.372;2023-02-15T03:54:55;14.90;;;7.53;;
49412;SDS011;35493;50.276;9.372;2023-02-15T03:57:23;14.02;;;6.60;;
49412;SDS011;35493;50.276;9.372;2023-02-15T04:00:11;15.07;;;7.03;;
49412;SDS011;35493;50.276;9.372;2023-02-15T04:03:09;12.93;;;6.47;;
49412;SDS011;35493;50.276;9.372;2023-02-15T04:05:49;14.70;;;7.18;;
49412;SDS011;35493;50.276;9.372;2023-02-15T04:08:16;14.73;;;7.22;;
49412;SDS011;35493;50.276;9.372;2023-02-15T04:10:43;14.68;;;6.45;;
49412;SDS011;35493;50.276;9.372;2023-02-15T04:13:18;13.95;;;6.53;;
49412;SDS011;35493;50.276;9.372;2023-02-15T04:15:45;12.88;;;7.05;;
49412;SDS011;35493;50.276;9.372;2023-02-15T04:18:29;14.82;;;7.32;;
49412;SDS011;35493;50.276;9.372;2023-02-15T04:21:16;14.02;;;6.60;;
49412;SDS011;35493;50.276;9.372;2023-02-15T04:24:00;14.02;;;6.32;;
49412;SDS011;35493;50.276;9.372;2023-02-15T04:26:45;15.75;;;7.50;;
49412;SDS011;35493;50.276;9.372;2023-02-15T04:29:13;15.77;;;7.28;;
49412;SDS011;35493;50.276;9.372;2023-02-15T04:31:39;17.25;;;7.78;;
49412;SDS011;35493;50.276;9.372;2023-02-15T04:34:08;14.82;;;7.03;;
49412;SDS011;35493;50.276;9.372;2023-02-15T04:36:37;16.92;;;7.65;;
49412;SDS011;35493;50.276;9.372;2023-02-15T04:39:04;15.50;;;6.97;;
49412;SDS011;35493;50.276;9.372;2023-02-15T04:41:31;16.85;;;7.65;;
49412;SDS011;35493;50.276;9.372;2023-02-15T04:44:01;18.17;;;8.00;;
49412;SDS011;35493;50.276;9.372;2023-02-15T04:46:28;14.30;;;6.85;;
49412;SDS011;35493;50.276;9.372;2023-02-15T04:48:55;15.25;;;7.22;;
49412;SDS011;35493;50.276;9.372;2023-02-15T04:51:22;17.67;;;7.47;;
49412;SDS011;35493;50.276;9.372;2023-02-15T04:53:50;15.88;;;7.35;;
49412;SDS011;35493;50.276;9.372;2023-02-15T04:56:18;15.88;;;7.28;;
49412;SDS011;35493;50.276;9.372;2023-02-15T04:58:45;16.98;;;7.28;;
49412;SDS011;35493;50.276;9.372;2023-02-15T05:01:12;16.17;;;8.07;;
49412;SDS011;35493;50.276;9.372;2023-02-15T05:03:39;14.68;;;6.95;;
49412;SDS011;35493;50.276;9.372;2023-02-15T05:06:06;15.02;;;7.43;;
49412;SDS011;35493;50.276;9.372;2023-02-15T05:08:33;16.55;;;7.43;;
49412;SDS011;35493;50.276;9.372;2023-02-15T05:11:01;14.32;;;6.82;;
49412;SDS011;35493;50.276;9.372;2023-02-15T05:13:29;15.13;;;7.10;;
49412;SDS011;35493;50.276;9.372;2023-02-15T05:15:57;15.43;;;7.38;;
49412;SDS011;35493;50.276;9.372;2023-02-15T05:18:24;15.63;;;7.53;;
49412;SDS011;35493;50.276;9.372;2023-02-15T05:20:51;15.05;;;7.97;;
49412;SDS011;35493;50.276;9.372;2023-02-15T05:23:18;17.77;;;8.00;;
49412;SDS011;35493;50.276;9.372;2023-02-15T05:25:48;16.92;;;7.47;;
49412;SDS011;35493;50.276;9.372;2023-02-15T05:28:35;16.90;;;8.05;;
49412;SDS011;35493;50.276;9.372;2023-02-15T05:31:05;17.27;;;7.38;;
49412;SDS011;35493;50.276;9.372;2023-02-15T05:33:33;14.65;;;7.32;;
49412;SDS011;35493;50.276;9.372;2023-02-15T05:36:01;15.88;;;7.88;;
49412;SDS011;35493;50.276;9.372;2023-02-15T05:38:29;16.77;;;7.68;;
49412;SDS011;35493;50.276;9.372;2023-02-15T05:40:56;14.57;;;7.20;;
49412;SDS011;35493;50.276;9.372;2023-02-15T05:43:24;15.63;;;7.30;;
49412;SDS011;35493;50.276;9.372;2023-02-15T05:45:53;16.92;;;7.18;;
49412;SDS011;35493;50.276;9.372;2023-02-15T05:48:21;16.80;;;7.07;;
49412;SDS011;35493;50.276;9.372;2023-02-15T05:50:56;17.85;;;7.53;;
49412;SDS011;35493;50.276;9.372;2023-02-15T05:53:24;17.17;;;8.25;;
49412;SDS011;35493;50.276;9.372;2023-02-15T05:55:51;14.93;;;7.38;;
49412;SDS011;35493;50.276;9.372;2023-02-15T05:58:19;16.58;;;7.50;;
49412;SDS011;35493;50.276;9.372;2023-02-15T06:00:46;16.63;;;7.72;;
49412;SDS011;35493;50.276;9.372;2023-02-15T06:03:14;17.23;;;8.48;;
49412;SDS011;35493;50.276;9.372;2023-02-15T06:05:41;17.15;;;7.50;;
49412;SDS011;35493;50.276;9.372;2023-02-15T06:08:08;17.15;;;8.15;;
49412;SDS011;35493;50.276;9.372;2023-02-15T06:10:35;16.70;;;7.45;;
49412;SDS011;35493;50.276;9.372;2023-02-15T06:13:02;15.07;;;7.25;;
49412;SDS011;35493;50.276;9.372;2023-02-15T06:15:29;17.92;;;7.85;;
49412;SDS011;35493;50.276;9.372;2023-02-15T06:17:56;15.27;;;7.88;;
49412;SDS011;35493;50.276;9.372;2023-02-15T06:20:25;17.85;;;8.02;;
49412;SDS011;35493;50.276;9.372;2023-02-15T06:22:52;16.95;;;8.00;;
49412;SDS011;35493;50.276;9.372;2023-02-15T06:25:19;16.00;;;7.53;;
49412;SDS011;35493;50.276;9.372;2023-02-15T06:27:46;15.60;;;7.53;;
49412;SDS011;35493;50.276;9.372;2023-02-15T06:30:14;16.08;;;7.70;;
49412;SDS011;35493;50.276;9.372;2023-02-15T06:32:41;16.13;;;7.40;;
49412;SDS011;35493;50.276;9.372;2023-02-15T06:35:08;15.27;;;7.60;;
49412;SDS011;35493;50.276;9.372;2023-02-15T06:37:38;14.50;;;7.25;;
49412;SDS011;35493;50.276;9.372;2023-02-15T06:40:05;18.23;;;7.75;;
49412;SDS011;35493;50.276;9.372;2023-02-15T06:42:33;17.20;;;7.78;;
49412;SDS011;35493;50.276;9.372;2023-02-15T06:45:00;16.55;;;7.72;;
49412;SDS011;35493;50.276;9.372;2023-02-15T06:47:27;17.55;;;8.45;;
49412;SDS011;35493;50.276;9.372;2023-02-15T06:49:54;16.48;;;7.82;;
49412;SDS011;35493;50.276;9.372;2023-02-15T06:52:21;17.50;;;8.10;;
49412;SDS011;35493;50.276;9.372;2023-02-15T06:54:49;17.08;;;8.35;;
49412;SDS011;35493;50.276;9.372;2023-02-15T06:57:16;15.60;;;7.70;;
49412;SDS011;35493;50.276;9.372;2023-02-15T06:59:43;16.35;;;8.40;;
49412;SDS011;35493;50.276;9.372;2023-02-15T07:02:10;17.15;;;7.75;;
49412;SDS011;35493;50.276;9.372;2023-02-15T07:04:37;16.40;;;7.90;;
49412;SDS011;35493;50.276;9.372;2023-02-15T07:07:07;19.25;;;7.80;;
49412;SDS011;35493;50.276;9.372;2023-02-15T07:09:34;19.55;;;8.20;;
49412;SDS011;35493;50.276;9.372;2023-02-15T07:12:03;18.05;;;8.25;;
49412;SDS011;35493;50.276;9.372;2023-02-15T07:14:47;16.77;;;7.85;;
49412;SDS011;35493;50.276;9.372;2023-02-15T07:17:14;15.43;;;8.18;;
49412;SDS011;35493;50.276;9.372;2023-02-15T07:19:41;21.70;;;9.02;;
49412;SDS011;35493;50.276;9.372;2023-02-15T07:22:08;17.77;;;8.18;;
49412;SDS011;35493;50.276;9.372;2023-02-15T07:24:38;17.30;;;7.90;;
49412;SDS011;35493;50.276;9.372;2023-02-15T07:27:07;19.05;;;8.68;;
49412;SDS011;35493;50.276;9.372;2023-02-15T07:29:34;14.93;;;7.43;;
49412;SDS011;35493;50.276;9.372;2023-02-15T07:32:01;17.40;;;8.32;;
49412;SDS011;35493;50.276;9.372;2023-02-15T07:34:27;15.15;;;7.00;;
49412;SDS011;35493;50.276;9.372;2023-02-15T07:36:57;17.13;;;7.57;;
49412;SDS011;35493;50.276;9.372;2023-02-15T07:39:24;15.35;;;7.38;;
49412;SDS011;35493;50.276;9.372;2023-02-15T07:41:51;15.95;;;7.18;;
49412;SDS011;35493;50.276;9.372;2023-02-15T07:44:19;15.15;;;7.38;;
49412;SDS011;35493;50.276;9.372;2023-02-15T07:46:46;14.02;;;6.97;;
49412;SDS011;35493;50.276;9.372;2023-02-15T07:49:13;15.98;;;7.70;;
49412;SDS011;35493;50.276;9.372;2023-02-15T07:51:40;15.90;;;7.47;;
49412;SDS011;35493;50.276;9.372;2023-02-15T07:54:07;19.40;;;8.35;;
49412;SDS011;35493;50.276;9.372;2023-02-15T07:56:34;13.95;;;7.15;;
49412;SDS011;35493;50.276;9.372;2023-02-15T07:59:01;16.05;;;7.50;;
49412;SDS011;35493;50.276;9.372;2023-02-15T08:01:32;15.77;;;7.72;;
49412;SDS011;35493;50.276;9.372;2023-02-15T08:04:01;17.05;;;8.15;;
49412;SDS011;35493;50.276;9.372;2023-02-15T08:06:30;16.75;;;8.18;;
49412;SDS011;35493;50.276;9.372;2023-02-15T08:08:59;18.23;;;8.07;;
49412;SDS011;35493;50.276;9.372;2023-02-15T08:11:31;16.35;;;7.72;;
49412;SDS011;35493;50.276;9.372;2023-02-15T08:14:02;17.85;;;8.43;;
49412;SDS011;35493;50.276;9.372;2023-02-15T08:16:34;18.02;;;8.27;;
49412;SDS011;35493;50.276;9.372;2023-02-15T08:19:03;17.67;;;7.70;;
49412;SDS011;35493;50.276;9.372;2023-02-15T08:21:31;13.90;;;7.20;;
49412;SDS011;35493;50.276;9.372;2023-02-15T08:23:59;18.08;;;7.88;;
49412;SDS011;35493;50.276;9.372;2023-02-15T08:26:27;16.33;;;7.28;;
49412;SDS011;35493;50.276;9.372;2023-02-15T08:28:54;14.77;;;7.07;;
49412;SDS011;35493;50.276;9.372;2023-02-15T08:31:22;15.95;;;8.00;;
49412;SDS011;35493;50.276;9.372;2023-02-15T08:33:56;16.38;;;7.30;;
49412;SDS011;35493;50.276;9.372;2023-02-15T08:36:24;13.32;;;6.50;;
49412;SDS011;35493;50.276;9.372;2023-02-15T08:38:54;16.17;;;7.07;;
49412;SDS011;35493;50.276;9.372;2023-02-15T08:41:22;15.15;;;7.45;;
49412;SDS011;35493;50.276;9.372;2023-02-15T08:43:50;16.20;;;7.03;;
49412;SDS011;35493;50.276;9.372;2023-02-15T08:46:19;15.13;;;7.32;;
49412;SDS011;35493;50.276;9.372;2023-02-15T08:48:48;16.92;;;7.05;;
49412;SDS011;35493;50.276;9.372;2023-02-15T08:51:17;15.13;;;7.45;;
49412;SDS011;35493;50.276;9.372;2023-02-15T08:53:49;13.48;;;6.97;;
49412;SDS011;35493;50.276;9.372;2023-02-15T08:56:17;14.98;;;7.65;;
49412;SDS011;35493;50.276;9.372;2023-02-15T08:58:46;12.30;;;6.63;;
49412;SDS011;35493;50.276;9.372;2023-02-15T09:01:13;15.65;;;7.30;;
49412;SDS011;35493;50.276;9.372;2023-02-15T09:03:48;16.17;;;8.05;;
49412;SDS011;35493;50.276;9.372;2023-02-15T09:06:19;14.68;;;7.05;;
49412;SDS011;35493;50.276;9.372;2023-02-15T09:08:47;15.45;;;7.43;;
49412;SDS011;35493;50.276;9.372;2023-02-15T09:11:14;13.98;;;7.38;;
49412;SDS011;35493;50.276;9.372;2023-02-15T09:13:48;12.63;;;6.85;;
49412;SDS011;35493;50.276;9.372;2023-02-15T09:16:15;16.55;;;7.05;;
49412;SDS011;35493;50.276;9.372;2023-02-15T09:18:42;15.68;;;7.97;;
49412;SDS011;35493;50.276;9.372;2023-02-15T09:21:10;15.82;;;7.53;;
49412;SDS011;35493;50.276;9.372;2023-02-15T09:23:40;15.98;;;7.72;;
49412;SDS011;35493;50.276;9.372;2023-02-15T09:26:09;15.18;;;7.57;;
49412;SDS011;35493;50.276;9.372;2023-02-15T09:28:37;17.42;;;7.72;;
49412;SDS011;35493;50.276;9.372;2023-02-15T09:31:05;16.58;;;7.65;;
49412;SDS011;35493;50.276;9.372;2023-02-15T09:33:34;17.15;;;8.73;;
49412;SDS011;35493;50.276;9.372;2023-02-15T09:36:02;16.23;;;7.68;;
49412;SDS011;35493;50.276;9.372;2023-02-15T09:38:29;15.95;;;7.82;;
49412;SDS011;35493;50.276;9.372;2023-02-15T09:41:03;16.05;;;7.97;;
49412;SDS011;35493;50.276;9.372;2023-02-15T09:43:46;15.48;;;7.25;;
49412;SDS011;35493;50.276;9.372;2023-02-15T09:46:29;19.45;;;9.07;;
49412;SDS011;35493;50.276;9.372;2023-02-15T09:49:08;17.27;;;8.27;;
49412;SDS011;35493;50.276;9.372;2023-02-15T09:51:53;18.38;;;9.15;;
49412;SDS011;35493;50.276;9.372;2023-02-15T09:54:53;17.83;;;7.97;;
49412;SDS011;35493;50.276;9.372;2023-02-15T09:57:43;19.92;;;8.77;;
49412;SDS011;35493;50.276;9.372;2023-02-15T10:00:20;15.93;;;8.23;;
49412;SDS011;35493;50.276;9.372;2023-02-15T10:02:56;14.93;;;7.53;;
49412;SDS011;35493;50.276;9.372;2023-02-15T10:05:36;16.30;;;7.40;;
49412;SDS011;35493;50.276;9.372;2023-02-15T10:08:13;16.98;;;8.23;;
49412;SDS011;35493;50.276;9.372;2023-02-15T10:10:55;13.32;;;6.75;;
49412;SDS011;35493;50.276;9.372;2023-02-15T10:13:52;16.83;;;7.90;;
49412;SDS011;35493;50.276;9.372;2023-02-15T10:16:28;15.75;;;8.38;;
49412;SDS011;35493;50.276;9.372;2023-02-15T10:19:04;14.05;;;7.10;;
49412;SDS011;35493;50.276;9.372;2023-02-15T10:21:43;13.90;;;7.57;;
49412;SDS011;35493;50.276;9.372;2023-02-15T10:24:27;15.38;;;7.15;;
49412;SDS011;35493;50.276;9.372;2023-02-15T10:27:06;15.43;;;7.60;;
49412;SDS011;35493;50.276;9.372;2023-02-15T10:29:41;15.80;;;7.85;;
49412;SDS011;35493;50.276;9.372;2023-02-15T10:32:16;14.07;;;8.20;;
49412;SDS011;35493;50.276;9.372;2023-02-15T10:34:50;16.15;;;7.72;;
49412;SDS011;35493;50.276;9.372;2023-02-15T10:37:28;16.30;;;7.80;;
49412;SDS011;35493;50.276;9.372;2023-02-15T10:40:19;13.55;;;6.95;;
49412;SDS011;35493;50.276;9.372;2023-02-15T10:42:58;15.40;;;7.63;;
49412;SDS011;35493;50.276;9.372;2023-02-15T10:45:40;13.43;;;6.63;;
49412;SDS011;35493;50.276;9.372;2023-02-15T10:48:25;17.17;;;9.15;;
49412;SDS011;35493;50.276;9.372;2023-02-15T10:51:04;13.23;;;7.00;;
49412;SDS011;35493;50.276;9.372;2023-02-15T10:53:38;15.88;;;7.53;;
49412;SDS011;35493;50.276;9.372;2023-02-15T10:56:20;15.23;;;7.00;;
49412;SDS011;35493;50.276;9.372;2023-02-15T10:58:57;16.88;;;7.45;;
49412;SDS011;35493;50.276;9.372;2023-02-15T11:01:33;13.55;;;7.32;;
49412;SDS011;35493;50.276;9.372;2023-02-15T11:04:29;16.25;;;7.53;;
49412;SDS011;35493;50.276;9.372;2023-02-15T11:07:14;14.65;;;7.07;;
49412;SDS011;35493;50.276;9.372;2023-02-15T11:09:46;13.70;;;7.20;;
49412;SDS011;35493;50.276;9.372;2023-02-15T11:12:16;14.00;;;7.20;;
49412;SDS011;35493;50.276;9.372;2023-02-15T11:14:49;13.43;;;6.43;;
49412;SDS011;35493;50.276;9.372;2023-02-15T11:17:23;13.82;;;7.18;;
49412;SDS011;35493;50.276;9.372;2023-02-15T11:19:56;13.45;;;6.72;;
49412;SDS011;35493;50.276;9.372;2023-02-15T11:22:29;13.98;;;6.72;;
49412;SDS011;35493;50.276;9.372;2023-02-15T11:24:58;12.95;;;6.85;;
49412;SDS011;35493;50.276;9.372;2023-02-15T11:27:26;13.45;;;6.93;;
49412;SDS011;35493;50.276;9.372;2023-02-15T11:29:58;13.40;;;6.88;;
49412;SDS011;35493;50.276;9.372;2023-02-15T11:32:30;13.13;;;6.68;;
49412;SDS011;35493;50.276;9.372;2023-02-15T11:35:00;13.55;;;6.93;;
49412;SDS011;35493;50.276;9.372;2023-02-15T11:37:33;14.10;;;7.25;;
49412;SDS011;35493;50.276;9.372;2023-02-15T11:40:12;15.18;;;7.30;;
49412;SDS011;35493;50.276;9.372;2023-02-15T11:42:45;12.32;;;7.20;;
49412;SDS011;35493;50.276;9.372;2023-02-15T11:45:19;13.23;;;6.75;;
49412;SDS011;35493;50.276;9.372;2023-02-15T11:47:51;13.45;;;7.03;;
49412;SDS011;35493;50.276;9.372;2023-02-15T11:50:20;14.05;;;7.53;;
49412;SDS011;35493;50.276;9.372;2023-02-15T11:52:49;14.55;;;7.30;;
49412;SDS011;35493;50.276;9.372;2023-02-15T11:55:19;13.82;;;7.38;;
49412;SDS011;35493;50.276;9.372;2023-02-15T11:57:50;13.70;;;6.85;;
49412;SDS011;35493;50.276;9.372;2023-02-15T12:00:26;11.70;;;6.40;;
49412;SDS011;35493;50.276;9.372;2023-02-15T12:03:03;12.10;;;6.53;;
49412;SDS011;35493;50.276;9.372;2023-02-15T12:05:39;12.98;;;6.55;;
49412;SDS011;35493;50.276;9.372;2023-02-15T12:08:13;12.48;;;7.03;;
49412;SDS011;35493;50.276;9.372;2023-02-15T12:10:45;15.20;;;7.90;;
49412;SDS011;35493;50.276;9.372;2023-02-15T12:13:22;12.32;;;7.07;;
49412;SDS011;35493;50.276;9.372;2023-02-15T12:15:50;12.38;;;6.43;;
49412;SDS011;35493;50.276;9.372;2023-02-15T12:18:24;11.88;;;6.63;;
49412;SDS011;35493;50.276;9.372;2023-02-15T12:21:03;12.70;;;6.82;;
49412;SDS011;35493;50.276;9.372;2023-02-15T12:23:33;13.32;;;6.95;;
49412;SDS011;35493;50.276;9.372;2023-02-15T12:26:07;12.88;;;6.90;;
49412;SDS011;35493;50.276;9.372;2023-02-15T12:28:35;12.88;;;7.07;;
49412;SDS011;35493;50.276;9.372;2023-02-15T12:31:07;14.35;;;6.93;;
49412;SDS011;35493;50.276;9.372;2023-02-15T12:36:15;13.00;;;6.22;;
49412;SDS011;35493;50.276;9.372;2023-02-15T12:39:02;12.25;;;7.20;;
49412;SDS011;35493;50.276;9.372;2023-02-15T12:41:31;11.90;;;6.53;;
49412;SDS011;35493;50.276;9.372;2023-02-15T12:44:05;12.70;;;6.68;;
49412;SDS011;35493;50.276;9.372;2023-02-15T12:46:42;15.35;;;7.18;;
49412;SDS011;35493;50.276;9.372;2023-02-15T12:51:52;13.15;;;7.15;;
49412;SDS011;35493;50.276;9.372;2023-02-15T13:00:00;14.60;;;7.22;;
49412;SDS011;35493;50.276;9.372;2023-02-15T13:02:34;13.52;;;7.32;;
49412;SDS011;35493;50.276;9.372;2023-02-15T13:05:17;13.75;;;7.05;;
49412;SDS011;35493;50.276;9.372;2023-02-15T13:07:53;13.57;;;7.18;;
49412;SDS011;35493;50.276;9.372;2023-02-15T13:10:23;13.98;;;7.63;;
49412;SDS011;35493;50.276;9.372;2023-02-15T13:15:23;11.73;;;6.43;;
49412;SDS011;35493;50.276;9.372;2023-02-15T13:17:54;13.25;;;7.45;;
49412;SDS011;35493;50.276;9.372;2023-02-15T13:20:23;13.45;;;6.72;;
49412;SDS011;35493;50.276;9.372;2023-02-15T13:22:53;14.07;;;7.32;;
49412;SDS011;35493;50.276;9.372;2023-02-15T13:25:24;14.05;;;6.70;;
49412;SDS011;35493;50.276;9.372;2023-02-15T13:27:54;14.00;;;7.60;;
49412;SDS011;35493;50.276;9.372;2023-02-15T13:30:25;13.48;;;7.47;;
49412;SDS011;35493;50.276;9.372;2023-02-15T13:32:57;15.18;;;7.25;;
49412;SDS011;35493;50.276;9.372;2023-02-15T13:35:28;16.60;;;7.82;;
49412;SDS011;35493;50.276;9.372;2023-02-15T13:38:11;13.07;;;7.25;;
49412;SDS011;35493;50.276;9.372;2023-02-15T13:40:48;14.32;;;8.10;;
49412;SDS011;35493;50.276;9.372;2023-02-15T13:43:33;15.40;;;7.60;;
49412;SDS011;35493;50.276;9.372;2023-02-15T13:46:12;14.77;;;7.68;;
49412;SDS011;35493;50.276;9.372;2023-02-15T13:48:51;12.88;;;6.88;;
49412;SDS011;35493;50.276;9.372;2023-02-15T13:51:26;13.63;;;7.13;;
49412;SDS011;35493;50.276;9.372;2023-02-15T13:57:08;15.98;;;7.57;;
49412;SDS011;35493;50.276;9.372;2023-02-15T13:59:51;11.98;;;7.13;;
49412;SDS011;35493;50.276;9.372;2023-02-15T14:02:44;14.02;;;7.88;;
49412;SDS011;35493;50.276;9.372;2023-02-15T14:05:28;13.82;;;7.25;;
49412;SDS011;35493;50.276;9.372;2023-02-15T14:08:04;12.32;;;7.22;;
49412;SDS011;35493;50.276;9.372;2023-02-15T14:10:39;13.30;;;6.97;;
49412;SDS011;35493;50.276;9.372;2023-02-15T14:13:24;13.15;;;7.40;;
49412;SDS011;35493;50.276;9.372;2023-02-15T14:16:11;15.55;;;8.23;;
49412;SDS011;35493;50.276;9.372;2023-02-15T14:18:44;14.45;;;8.40;;
49412;SDS011;35493;50.276;9.372;2023-02-15T14:21:17;14.40;;;7.90;;
49412;SDS011;35493;50.276;9.372;2023-02-15T14:23:52;15.25;;;8.68;;
49412;SDS011;35493;50.276;9.372;2023-02-15T14:26:30;14.35;;;8.25;;
49412;SDS011;35493;50.276;9.372;2023-02-15T14:29:06;15.50;;;8.13;;
49412;SDS011;35493;50.276;9.372;2023-02-15T14:31:43;13.63;;;7.63;;
49412;SDS011;35493;50.276;9.372;2023-02-15T14:34:17;16.38;;;8.93;;
49412;SDS011;35493;50.276;9.372;2023-02-15T14:36:47;15.30;;;8.15;;
49412;SDS011;35493;50.276;9.372;2023-02-15T14:39:19;15.15;;;8.68;;
49412;SDS011;35493;50.276;9.372;2023-02-15T14:42:12;15.57;;;8.52;;
49412;SDS011;35493;50.276;9.372;2023-02-15T14:44:45;18.02;;;8.40;;
49412;SDS011;35493;50.276;9.372;2023-02-15T14:47:20;16.17;;;8.95;;
49412;SDS011;35493;50.276;9.372;2023-02-15T14:49:52;15.90;;;7.75;;
49412;SDS011;35493;50.276;9.372;2023-02-15T14:52:19;16.45;;;8.77;;
49412;SDS011;35493;50.276;9.372;2023-02-15T14:54:53;16.05;;;8.77;;
49412;SDS011;35493;50.276;9.372;2023-02-15T14:57:25;16.00;;;9.07;;
49412;SDS011;35493;50.276;9.372;2023-02-15T14:59:55;17.77;;;8.90;;
49412;SDS011;35493;50.276;9.372;2023-02-15T15:02:24;18.10;;;9.25;;
49412;SDS011;35493;50.276;9.372;2023-02-15T15:04:56;16.17;;;8.70;;
49412;SDS011;35493;50.276;9.372;2023-02-15T15:07:27;17.00;;;9.20;;
49412;SDS011;35493;50.276;9.372;2023-02-15T15:10:04;14.68;;;8.30;;
49412;SDS011;35493;50.276;9.372;2023-02-15T15:12:42;16.80;;;9.30;;
49412;SDS011;35493;50.276;9.372;2023-02-15T15:15:11;16.38;;;8.73;;
49412;SDS011;35493;50.276;9.372;2023-02-15T15:17:54;15.80;;;9.02;;
49412;SDS011;35493;50.276;9.372;2023-02-15T15:20:45;16.13;;;9.05;;
49412;SDS011;35493;50.276;9.372;2023-02-15T15:26:24;16.42;;;8.02;;
49412;SDS011;35493;50.276;9.372;2023-02-15T15:28:53;17.17;;;9.00;;
49412;SDS011;35493;50.276;9.372;2023-02-15T15:31:22;17.98;;;9.82;;